createdAt,value
2022-11-05T00:00:07.525Z,4.50
2022-11-05T00:02:52.277Z,5.10
2022-11-05T00:05:37.147Z,5.50
2022-11-05T00:08:23.129Z,5.50
2022-11-05T00:10:49.874Z,4.73
2022-11-05T00:13:35.416Z,4.33
2022-11-05T00:16:39.704Z,6.20
2022-11-05T00:19:10.214Z,4.87
2022-11-05T00:21:56.920Z,4.97
2022-11-05T00:24:42.589Z,4.73
2022-11-05T00:27:09.742Z,4.60
2022-11-05T00:29:36.381Z,4.53
2022-11-05T00:32:02.939Z,5.73
2022-11-05T00:34:29.476Z,4.97
2022-11-05T00:36:56.241Z,9.40
2022-11-05T00:39:23.094Z,11.10
2022-11-05T00:42:09.555Z,6.30
2022-11-05T00:44:54.576Z,5.30
2022-11-05T00:47:39.885Z,5.00
2022-11-05T00:50:06.800Z,4.67
2022-11-05T00:52:51.774Z,5.60
2022-11-05T00:55:18.272Z,5.30
2022-11-05T00:57:44.689Z,5.80
2022-11-05T01:00:12.348Z,6.53
2022-11-05T01:02:38.962Z,5.07
2022-11-05T01:05:06.262Z,7.53
2022-11-05T01:07:32.771Z,7.73
2022-11-05T01:09:59.398Z,6.37
2022-11-05T01:12:25.907Z,5.07
2022-11-05T01:14:52.439Z,6.60
2022-11-05T01:17:18.901Z,4.37
2022-11-05T01:19:45.465Z,4.90
2022-11-05T01:22:12.642Z,6.20
2022-11-05T01:24:39.209Z,5.40
2022-11-05T01:27:05.715Z,6.67
2022-11-05T01:29:32.518Z,5.40
2022-11-05T01:31:58.959Z,6.97
2022-11-05T01:34:25.414Z,6.90
2022-11-05T01:36:52.039Z,6.00
2022-11-05T01:39:18.493Z,5.23
2022-11-05T01:41:44.963Z,4.37
2022-11-05T01:44:49.235Z,5.80
2022-11-05T01:47:27.591Z,4.73
2022-11-05T01:49:54.656Z,6.60
2022-11-05T01:52:22.222Z,4.73
2022-11-05T01:54:48.725Z,4.67
2022-11-05T01:57:15.727Z,4.70
2022-11-05T01:59:49.079Z,4.30
2022-11-05T02:02:15.880Z,5.37
2022-11-05T02:04:54.866Z,5.13
2022-11-05T02:07:23.217Z,4.70
2022-11-05T02:10:08.734Z,5.17
2022-11-05T02:12:37.592Z,5.77
2022-11-05T02:15:04.758Z,5.30
2022-11-05T02:18:12.258Z,5.23
2022-11-05T02:20:49.410Z,4.50
2022-11-05T02:23:27.505Z,4.77
2022-11-05T02:26:32.890Z,6.17
2022-11-05T02:29:32.150Z,5.60
2022-11-05T02:31:58.700Z,5.10
2022-11-05T02:34:44.046Z,4.63
2022-11-05T02:37:19.870Z,5.50
2022-11-05T02:39:52.333Z,9.40
2022-11-05T02:42:18.744Z,5.50
2022-11-05T02:44:58.869Z,4.83
2022-11-05T02:47:33.147Z,4.83
2022-11-05T02:50:37.886Z,4.70
2022-11-05T02:53:13.809Z,5.07
2022-11-05T02:55:45.688Z,5.03
2022-11-05T02:58:13.445Z,4.37
2022-11-05T03:00:50.455Z,5.07
2022-11-05T03:03:18.659Z,4.40
2022-11-05T03:06:11.131Z,4.73
2022-11-05T03:09:03.637Z,4.60
2022-11-05T03:11:33.078Z,3.83
2022-11-05T03:14:05.111Z,4.93
2022-11-05T03:16:38.878Z,4.90
2022-11-05T03:19:26.655Z,5.70
2022-11-05T03:22:02.881Z,4.57
2022-11-05T03:24:34.711Z,4.60
2022-11-05T03:27:11.037Z,5.00
2022-11-05T03:29:41.723Z,5.93
2022-11-05T03:32:09.035Z,6.40
2022-11-05T03:34:45.277Z,4.90
2022-11-05T03:37:11.936Z,5.23
2022-11-05T03:39:47.487Z,6.10
2022-11-05T03:42:16.755Z,6.17
2022-11-05T03:44:48.085Z,5.67
2022-11-05T03:47:18.771Z,6.20
2022-11-05T03:50:09.935Z,5.40
2022-11-05T03:52:40.461Z,5.03
2022-11-05T03:55:07.157Z,5.67
2022-11-05T03:57:37.278Z,4.20
2022-11-05T04:00:07.959Z,5.37
2022-11-05T04:02:34.644Z,5.80
2022-11-05T04:05:01.659Z,6.30
2022-11-05T04:07:46.873Z,5.30
2022-11-05T04:10:31.730Z,6.10
2022-11-05T04:13:16.599Z,6.00
2022-11-05T04:16:01.710Z,5.67
2022-11-05T04:18:28.187Z,5.30
2022-11-05T04:21:13.178Z,6.00
2022-11-05T04:23:58.410Z,5.40
2022-11-05T04:26:24.869Z,5.10
2022-11-05T04:29:10.578Z,4.90
2022-11-05T04:31:37.953Z,5.87
2022-11-05T04:34:04.930Z,6.00
2022-11-05T04:36:31.540Z,5.67
2022-11-05T04:38:58.004Z,6.97
2022-11-05T04:41:25.437Z,5.57
2022-11-05T04:43:52.345Z,6.20
2022-11-05T04:46:18.850Z,5.80
2022-11-05T04:48:45.417Z,6.17
2022-11-05T04:51:11.925Z,7.03
2022-11-05T04:53:38.447Z,4.90
2022-11-05T04:56:18.972Z,6.40
2022-11-05T04:58:45.923Z,5.80
2022-11-05T05:01:20.791Z,5.67
2022-11-05T05:03:48.724Z,5.33
2022-11-05T05:06:15.761Z,7.17
2022-11-05T05:08:42.394Z,5.30
2022-11-05T05:11:12.174Z,6.10
2022-11-05T05:13:38.671Z,6.00
2022-11-05T05:16:22.870Z,6.63
2022-11-05T05:18:49.924Z,5.73
2022-11-05T05:21:36.626Z,6.53
2022-11-05T05:24:03.604Z,7.93
2022-11-05T05:26:30.117Z,6.50
2022-11-05T05:28:56.840Z,6.90
2022-11-05T05:31:23.839Z,6.30
2022-11-05T05:33:53.880Z,6.37
2022-11-05T05:36:21.096Z,5.60
2022-11-05T05:38:47.605Z,5.20
2022-11-05T05:41:14.302Z,6.60
2022-11-05T05:43:40.843Z,5.27
2022-11-05T05:46:09.196Z,6.00
2022-11-05T05:48:36.038Z,6.27
2022-11-05T05:51:07.979Z,6.80
2022-11-05T05:53:34.621Z,5.37
2022-11-05T05:56:01.513Z,7.00
2022-11-05T05:58:33.308Z,6.03
2022-11-05T06:01:09.596Z,7.60
2022-11-05T06:03:37.469Z,5.57
2022-11-05T06:06:07.243Z,7.03
2022-11-05T06:08:34.094Z,5.40
2022-11-05T06:11:01.754Z,5.03
2022-11-05T06:13:28.827Z,5.10
2022-11-05T06:16:01.308Z,6.33
2022-11-05T06:18:28.430Z,4.90
2022-11-05T06:20:56.117Z,5.80
2022-11-05T06:23:22.894Z,5.13
2022-11-05T06:25:49.317Z,5.83
2022-11-05T06:28:15.985Z,5.43
2022-11-05T06:30:42.438Z,6.50
2022-11-05T06:33:09.238Z,6.17
2022-11-05T06:35:36.284Z,4.20
2022-11-05T06:38:02.808Z,6.70
2022-11-05T06:40:29.590Z,4.83
2022-11-05T06:42:56.275Z,5.00
2022-11-05T06:45:22.774Z,6.13
2022-11-05T06:47:55.158Z,6.67
2022-11-05T06:50:21.641Z,7.50
2022-11-05T06:53:02.248Z,5.83
2022-11-05T06:55:30.518Z,5.17
2022-11-05T06:57:57.310Z,6.30
2022-11-05T07:00:24.214Z,7.00
2022-11-05T07:02:50.727Z,7.27
2022-11-05T07:05:17.718Z,6.40
2022-11-05T07:07:45.191Z,6.80
2022-11-05T07:10:14.415Z,6.50
2022-11-05T07:12:40.990Z,7.17
2022-11-05T07:15:08.271Z,6.77
2022-11-05T07:17:34.805Z,6.30
2022-11-05T07:20:01.339Z,6.30
2022-11-05T07:22:27.875Z,6.20
2022-11-05T07:24:54.368Z,6.27
2022-11-05T07:27:21.163Z,6.07
2022-11-05T07:29:47.615Z,7.50
2022-11-05T07:32:14.120Z,7.30
2022-11-05T07:34:40.733Z,6.37
2022-11-05T07:37:07.289Z,7.50
2022-11-05T07:39:33.728Z,6.60
2022-11-05T07:42:00.537Z,6.07
2022-11-05T07:44:27.081Z,6.53
2022-11-05T07:46:53.637Z,7.00
2022-11-05T07:49:20.206Z,6.40
2022-11-05T07:51:46.673Z,6.00
2022-11-05T07:54:13.176Z,6.67
2022-11-05T07:56:39.657Z,5.57
2022-11-05T07:59:06.192Z,6.30
2022-11-05T08:01:33.110Z,6.00
2022-11-05T08:03:59.765Z,6.00
2022-11-05T08:06:26.395Z,7.90
2022-11-05T08:08:52.889Z,8.17
2022-11-05T08:11:19.351Z,6.83
2022-11-05T08:13:45.901Z,6.97
2022-11-05T08:16:12.432Z,7.83
2022-11-05T08:18:40.236Z,6.33
2022-11-05T08:21:07.283Z,7.40
2022-11-05T08:23:33.926Z,6.53
2022-11-05T08:26:03.125Z,7.30
2022-11-05T08:28:29.687Z,7.03
2022-11-05T08:30:57.276Z,6.53
2022-11-05T08:33:24.800Z,6.60
2022-11-05T08:35:51.498Z,6.77
2022-11-05T08:38:19.480Z,7.53
2022-11-05T08:40:54.165Z,7.00
2022-11-05T08:43:21.044Z,6.33
2022-11-05T08:45:47.614Z,7.80
2022-11-05T08:48:16.601Z,7.57
2022-11-05T08:50:44.460Z,6.67
2022-11-05T08:53:11.609Z,9.00
2022-11-05T08:55:38.662Z,6.17
2022-11-05T08:58:07.555Z,9.43
2022-11-05T09:00:36.341Z,5.70
2022-11-05T09:03:04.798Z,7.77
2022-11-05T09:05:32.298Z,5.20
2022-11-05T09:08:01.392Z,5.20
2022-11-05T09:10:28.725Z,6.23
2022-11-05T09:12:55.243Z,5.67
2022-11-05T09:15:23.267Z,5.37
2022-11-05T09:17:50.067Z,5.97
2022-11-05T09:20:16.632Z,8.37
2022-11-05T09:22:43.588Z,7.90
2022-11-05T09:25:10.636Z,8.53
2022-11-05T09:27:37.280Z,7.30
2022-11-05T09:30:04.654Z,9.10
2022-11-05T09:32:32.200Z,7.87
2022-11-05T09:35:01.075Z,7.03
2022-11-05T09:37:28.161Z,6.17
2022-11-05T09:39:55.519Z,6.80
2022-11-05T09:42:25.749Z,5.87
2022-11-05T09:44:59.359Z,5.80
2022-11-05T09:47:36.254Z,6.50
2022-11-05T09:50:07.478Z,6.43
2022-11-05T09:52:34.597Z,6.23
2022-11-05T09:55:04.322Z,5.97
2022-11-05T09:57:44.564Z,6.10
2022-11-05T10:00:18.033Z,5.83
2022-11-05T10:02:51.974Z,6.50
2022-11-05T10:05:19.264Z,5.80
2022-11-05T10:07:50.233Z,5.77
2022-11-05T10:10:39.507Z,6.87
2022-11-05T10:13:21.953Z,5.70
2022-11-05T10:15:58.232Z,6.13
2022-11-05T10:18:30.374Z,5.43
2022-11-05T10:20:56.851Z,5.50
2022-11-05T10:23:23.595Z,5.60
2022-11-05T10:25:54.191Z,6.33
2022-11-05T10:28:23.745Z,5.70
2022-11-05T10:30:55.547Z,5.77
2022-11-05T10:33:29.379Z,4.90
2022-11-05T10:36:00.663Z,6.20
2022-11-05T10:38:27.163Z,5.90
2022-11-05T10:41:28.639Z,6.70
2022-11-05T10:44:09.172Z,6.77
2022-11-05T10:46:47.499Z,5.37
2022-11-05T10:49:43.041Z,6.13
2022-11-05T10:52:26.092Z,6.73
2022-11-05T10:54:56.152Z,6.00
2022-11-05T10:57:36.536Z,6.30
2022-11-05T11:00:15.365Z,5.27
2022-11-05T11:02:47.651Z,5.33
2022-11-05T11:05:26.434Z,5.20
2022-11-05T11:08:12.909Z,6.27
2022-11-05T11:10:50.137Z,4.53
2022-11-05T11:13:28.319Z,6.60
2022-11-05T11:15:55.782Z,5.97
2022-11-05T11:18:30.891Z,6.40
2022-11-05T11:21:07.114Z,6.10
2022-11-05T11:23:39.154Z,7.20
2022-11-05T11:26:06.290Z,6.07
2022-11-05T11:28:36.332Z,6.70
2022-11-05T11:31:14.492Z,6.20
2022-11-05T11:33:43.041Z,7.10
2022-11-05T11:36:10.876Z,6.60
2022-11-05T11:38:37.889Z,6.37
2022-11-05T11:41:27.075Z,6.47
2022-11-05T11:44:01.923Z,7.77
2022-11-05T11:46:31.863Z,6.40
2022-11-05T11:48:59.175Z,5.97
2022-11-05T11:51:25.580Z,6.97
2022-11-05T11:53:56.561Z,5.30
2022-11-05T11:56:23.348Z,5.37
2022-11-05T11:58:52.202Z,6.30
2022-11-05T12:01:28.789Z,6.87
2022-11-05T12:04:19.797Z,6.00
2022-11-05T12:06:56.780Z,5.90
2022-11-05T12:09:28.028Z,5.10
2022-11-05T12:12:06.246Z,5.20
2022-11-05T12:15:02.768Z,6.90
2022-11-05T12:17:48.186Z,8.87
2022-11-05T12:20:26.835Z,4.93
2022-11-05T12:23:15.136Z,6.37
2022-11-05T12:26:23.042Z,4.53
2022-11-05T12:29:22.818Z,5.60
2022-11-05T12:32:16.972Z,9.60
2022-11-05T12:34:55.823Z,17.90
2022-11-05T12:37:39.957Z,20.60
2022-11-05T12:40:24.697Z,13.47
2022-11-05T12:42:57.075Z,7.90
2022-11-05T12:45:45.595Z,6.10
2022-11-05T12:48:29.286Z,4.10
2022-11-05T12:51:12.005Z,4.30
2022-11-05T12:53:53.693Z,4.33
2022-11-05T12:56:35.849Z,4.27
2022-11-05T12:59:10.965Z,4.00
2022-11-05T13:01:40.781Z,4.40
2022-11-05T13:04:28.718Z,4.10
2022-11-05T13:06:55.700Z,3.80
2022-11-05T13:09:26.330Z,4.87
2022-11-05T13:11:54.988Z,4.00
2022-11-05T13:14:25.724Z,4.70
2022-11-05T13:17:05.439Z,4.60
2022-11-05T13:20:11.741Z,5.00
2022-11-05T13:22:49.626Z,5.33
2022-11-05T13:25:25.605Z,5.13
2022-11-05T13:27:58.175Z,4.87
2022-11-05T13:30:41.518Z,5.43
2022-11-05T13:33:12.545Z,4.77
2022-11-05T13:35:48.940Z,5.23
2022-11-05T13:38:43.862Z,4.40
2022-11-05T13:41:34.947Z,5.17
2022-11-05T13:44:04.450Z,6.13
2022-11-05T13:46:51.525Z,4.77
2022-11-05T13:49:27.087Z,6.07
2022-11-05T13:52:21.822Z,4.73
2022-11-05T13:54:54.403Z,4.97
2022-11-05T13:57:49.078Z,5.20
2022-11-05T14:00:27.026Z,4.23
2022-11-05T14:03:01.434Z,5.03
2022-11-05T14:05:36.680Z,5.63
2022-11-05T14:08:11.436Z,5.43
2022-11-05T14:11:05.052Z,6.10
2022-11-05T14:13:38.183Z,5.83
2022-11-05T14:16:07.735Z,5.60
2022-11-05T14:18:40.815Z,5.53
2022-11-05T14:21:27.336Z,5.20
2022-11-05T14:23:58.815Z,6.10
2022-11-05T14:26:29.858Z,6.77
2022-11-05T14:29:05.616Z,5.60
2022-11-05T14:32:08.178Z,4.43
2022-11-05T14:35:04.181Z,5.23
2022-11-05T14:37:40.451Z,5.30
2022-11-05T14:40:32.563Z,4.60
2022-11-05T14:43:26.102Z,5.33
2022-11-05T14:45:56.709Z,5.20
2022-11-05T14:48:31.979Z,4.77
2022-11-05T14:50:59.019Z,6.00
2022-11-05T14:53:39.550Z,5.70
2022-11-05T14:56:11.978Z,6.80
2022-11-05T14:58:43.077Z,6.50
2022-11-05T15:01:32.194Z,5.53
2022-11-05T15:04:26.507Z,5.00
2022-11-05T15:07:01.957Z,5.20
2022-11-05T15:09:45.240Z,5.47
2022-11-05T15:12:18.212Z,6.60
2022-11-05T15:14:57.588Z,5.63
2022-11-05T15:17:30.293Z,5.90
2022-11-05T15:20:07.000Z,4.60
2022-11-05T15:22:37.154Z,6.10
2022-11-05T15:25:05.743Z,5.50
2022-11-05T15:27:43.429Z,5.83
2022-11-05T15:30:21.697Z,8.20
2022-11-05T15:32:48.331Z,7.80
2022-11-05T15:35:27.673Z,5.90
2022-11-05T15:38:01.722Z,5.30
2022-11-05T15:40:31.354Z,5.87
2022-11-05T15:43:17.685Z,4.03
2022-11-05T15:46:00.039Z,4.20
2022-11-05T15:48:26.613Z,5.10
2022-11-05T15:50:53.145Z,5.20
2022-11-05T15:54:15.567Z,4.60
2022-11-05T15:56:36.519Z,5.97
2022-11-05T15:59:13.393Z,5.43
2022-11-05T16:01:48.499Z,4.90
2022-11-05T16:04:17.873Z,4.53
2022-11-05T16:06:46.285Z,4.93
2022-11-05T16:09:34.785Z,4.10
2022-11-05T16:12:19.687Z,5.40
2022-11-05T16:15:07.782Z,5.30
2022-11-05T16:17:40.157Z,5.60
2022-11-05T16:20:31.053Z,5.30
2022-11-05T16:23:06.164Z,5.70
2022-11-05T16:25:38.969Z,5.37
2022-11-05T16:28:26.797Z,4.67
2022-11-05T16:31:03.726Z,5.00
2022-11-05T16:33:54.805Z,7.33
2022-11-05T16:36:22.056Z,12.17
2022-11-05T16:38:48.957Z,11.30
2022-11-05T16:41:17.714Z,5.87
2022-11-05T16:43:55.647Z,5.10
2022-11-05T16:46:23.438Z,4.87
2022-11-05T16:48:50.250Z,5.60
2022-11-05T16:51:18.719Z,5.47
2022-11-05T16:53:48.653Z,5.83
2022-11-05T16:56:17.900Z,5.20
2022-11-05T16:58:46.220Z,16.37
2022-11-05T17:01:18.305Z,12.10
2022-11-05T17:03:45.529Z,9.00
2022-11-05T17:06:13.297Z,9.23
2022-11-05T17:08:40.494Z,8.30
2022-11-05T17:11:07.579Z,7.40
2022-11-05T17:13:34.125Z,8.30
2022-11-05T17:16:00.735Z,9.40
2022-11-05T17:18:27.214Z,9.40
2022-11-05T17:20:55.042Z,8.67
2022-11-05T17:23:23.964Z,7.63
2022-11-05T17:25:51.960Z,7.90
2022-11-05T17:28:18.905Z,7.97
2022-11-05T17:30:52.283Z,8.63
2022-11-05T17:33:19.893Z,8.00
2022-11-05T17:35:46.451Z,6.80
2022-11-05T17:38:13.273Z,6.40
2022-11-05T17:40:40.454Z,6.30
2022-11-05T17:43:07.507Z,7.10
2022-11-05T17:45:34.114Z,6.80
2022-11-05T17:48:03.202Z,7.27
2022-11-05T17:50:30.159Z,8.30
2022-11-05T17:52:56.729Z,11.27
2022-11-05T17:55:23.213Z,11.37
2022-11-05T17:57:52.654Z,15.30
2022-11-05T18:00:22.667Z,10.17
2022-11-05T18:02:51.767Z,8.33
2022-11-05T18:05:19.020Z,8.30
2022-11-05T18:07:46.271Z,10.77
2022-11-05T18:10:13.312Z,8.80
2022-11-05T18:12:39.889Z,8.27
2022-11-05T18:15:07.571Z,7.00
2022-11-05T18:17:34.156Z,6.00
2022-11-05T18:20:00.725Z,5.70
2022-11-05T18:22:27.307Z,4.70
2022-11-05T18:24:54.864Z,3.77
2022-11-05T18:27:24.555Z,3.57
2022-11-05T18:29:51.185Z,4.10
2022-11-05T18:32:17.705Z,4.10
2022-11-05T18:34:44.260Z,5.03
2022-11-05T18:37:10.833Z,4.00
2022-11-05T18:39:37.377Z,3.87
2022-11-05T18:42:04.003Z,3.80
2022-11-05T18:44:33.734Z,3.93
2022-11-05T18:47:03.332Z,4.20
2022-11-05T18:49:29.789Z,3.27
2022-11-05T18:51:56.273Z,3.87
2022-11-05T18:54:22.846Z,4.50
2022-11-05T18:56:49.412Z,6.87
2022-11-05T19:02:06.135Z,6.00
2022-11-05T19:04:32.954Z,7.37
2022-11-05T19:07:04.505Z,5.70
2022-11-05T19:09:32.123Z,5.27
2022-11-05T19:11:58.751Z,6.80
2022-11-05T19:14:25.265Z,6.40
2022-11-05T19:16:51.792Z,7.30
2022-11-05T19:19:18.272Z,6.23
2022-11-05T19:21:44.782Z,6.80
2022-11-05T19:24:16.765Z,5.80
2022-11-05T19:26:43.941Z,5.60
2022-11-05T19:29:10.846Z,7.23
2022-11-05T19:31:37.404Z,6.47
2022-11-05T19:34:05.741Z,6.00
2022-11-05T19:36:33.435Z,7.20
2022-11-05T19:39:03.262Z,7.20
2022-11-05T19:41:29.937Z,5.47
2022-11-05T19:43:58.143Z,7.50
2022-11-05T19:46:24.975Z,7.90
2022-11-05T19:48:51.723Z,6.30
2022-11-05T19:51:26.575Z,6.70
2022-11-05T19:53:53.610Z,7.10
2022-11-05T19:56:23.359Z,6.90
2022-11-05T19:58:50.056Z,7.70
2022-11-05T20:01:17.585Z,7.03
2022-11-05T20:03:44.804Z,7.60
2022-11-05T20:06:14.282Z,6.43
2022-11-05T20:08:59.746Z,6.50
2022-11-05T20:11:29.039Z,6.73
2022-11-05T20:13:56.889Z,6.77
2022-11-05T20:16:23.360Z,6.57
2022-11-05T20:18:50.712Z,8.20
2022-11-05T20:21:17.520Z,7.30
2022-11-05T20:23:44.126Z,7.80
2022-11-05T20:26:11.339Z,6.97
2022-11-05T20:28:38.439Z,6.87
2022-11-05T20:31:10.085Z,6.80
2022-11-05T20:33:37.327Z,6.47
2022-11-05T20:36:06.747Z,6.43
2022-11-05T20:38:33.618Z,7.07
2022-11-05T20:41:00.178Z,6.90
2022-11-05T20:43:30.330Z,6.20
2022-11-05T20:45:58.181Z,7.10
2022-11-05T20:48:24.697Z,6.47
2022-11-05T20:50:51.163Z,6.30
2022-11-05T20:53:17.706Z,6.60
2022-11-05T20:55:46.024Z,7.87
2022-11-05T20:58:14.494Z,7.43
2022-11-05T21:00:46.482Z,9.23
2022-11-05T21:03:12.972Z,7.50
2022-11-05T21:05:39.547Z,7.80
2022-11-05T21:08:06.046Z,6.57
2022-11-05T21:10:32.896Z,5.77
2022-11-05T21:12:59.315Z,4.97
2022-11-05T21:15:25.954Z,6.57
2022-11-05T21:17:52.434Z,7.80
2022-11-05T21:20:19.046Z,6.80
2022-11-05T21:22:45.611Z,7.17
2022-11-05T21:25:12.339Z,7.60
2022-11-05T21:27:42.546Z,7.10
2022-11-05T21:30:10.693Z,6.27
2022-11-05T21:32:37.435Z,6.63
2022-11-05T21:35:05.125Z,6.30
2022-11-05T21:37:32.164Z,6.40
2022-11-05T21:39:58.635Z,6.30
2022-11-05T21:42:25.119Z,7.20
2022-11-05T21:44:54.002Z,8.90
2022-11-05T21:47:24.369Z,7.37
2022-11-05T21:49:50.880Z,6.70
2022-11-05T21:52:35.727Z,6.30
2022-11-05T21:55:20.553Z,6.43
2022-11-05T21:58:05.819Z,6.13
2022-11-05T22:00:32.353Z,4.90
2022-11-05T22:03:01.431Z,4.77
2022-11-05T22:05:28.100Z,4.87
2022-11-05T22:07:54.611Z,6.50
2022-11-05T22:10:21.208Z,7.80
2022-11-05T22:12:47.707Z,6.30
2022-11-05T22:15:14.364Z,5.67
2022-11-05T22:17:46.220Z,5.27
2022-11-05T22:20:13.827Z,5.73
2022-11-05T22:22:40.343Z,4.20
2022-11-05T22:25:07.054Z,4.37
2022-11-05T22:27:33.609Z,4.77
2022-11-05T22:30:00.186Z,5.63
2022-11-05T22:32:26.663Z,6.30
2022-11-05T22:34:53.340Z,6.83
2022-11-05T22:37:19.813Z,7.57
2022-11-05T22:39:46.306Z,6.33
2022-11-05T22:42:12.976Z,5.50
2022-11-05T22:44:39.574Z,5.03
2022-11-05T22:47:06.290Z,7.10
2022-11-05T22:49:33.151Z,6.43
2022-11-05T22:51:59.951Z,5.70
2022-11-05T22:54:26.466Z,5.87
2022-11-05T22:56:53.856Z,6.20
2022-11-05T22:59:20.421Z,5.73
2022-11-05T23:01:47.202Z,4.97
2022-11-05T23:04:14.806Z,4.70
2022-11-05T23:06:59.974Z,5.50
2022-11-05T23:09:50.670Z,5.77
2022-11-05T23:12:27.266Z,5.20
2022-11-05T23:14:55.023Z,5.00
2022-11-05T23:17:40.123Z,5.43
2022-11-05T23:20:26.397Z,5.00
2022-11-05T23:23:11.580Z,6.00
2022-11-05T23:25:38.174Z,5.60
2022-11-05T23:28:07.272Z,6.10
2022-11-05T23:30:33.867Z,6.13
2022-11-05T23:33:00.362Z,6.47
2022-11-05T23:35:45.264Z,6.27
2022-11-05T23:38:31.112Z,5.60
2022-11-05T23:41:20.665Z,5.80
2022-11-05T23:44:06.056Z,5.73
2022-11-05T23:46:50.944Z,5.37
2022-11-05T23:49:17.746Z,6.07
2022-11-05T23:51:44.199Z,5.57
2022-11-05T23:54:10.908Z,5.03
2022-11-05T23:56:37.655Z,5.30
2022-11-05T23:59:04.932Z,5.67
